Hlavní strana
METAR-TAF:

METAR-TAF

Letiště :

Montichiari

Brescia, Itálie

zeměpisná šířka: 45-24-02N, zeměpisná délka: 010-18-59E, výška: 104 m

Aktuální stav počasí

Zpráva byla vytvořena před 37 minutami, v 06:50 UTC
Východní vítr 5 kt, proměnlivý mezi severoseverovýchodním a východojihovýchodním
Teplota 26°C
Vlhkost vzduchu 61%
Tlak 1016 hPa
Viditelnost 10 km a více

METAR: LIPO 190650Z AUTO 09005KT 030V120 9999 NCD 26/18 Q1016

Čas: 09:27 (07:27 UTC)

Předpověď počasí

Zpráva byla vytvořena před 2 hodinami a 27 minutami, v 05:00 UTC
Předpověď platná od 19 v 06 UTC do 20 v 06 UTC
vítr z různých směrů 4 kt
Viditelnost 10 km a více
Skoro jasno ve výšce 5000 ft

TAF: LIPO 190500Z 1906/2006 VRB04KT 9999 FEW050

Stav a předpovědi počasí z více než 4 000 letišť (zprávy METAR a TAF).

Červené a žluté tečky na mapě představují dostupné meteorologické stanice.

Když kurzor umístíte na tečku, zobrazí se název stanice.

Pak kliknutím zobrazíte stav a předpověď počasí.

Chcete-li změnit mapu, kliknutím na zelené tlačítko se znaménkem +mapu přiblížíte, kliknutím na zelené tlačítko se znaménkem – mapu oddálíte a kliknutím na zelené šipky přejdete na sousední mapy.


METAR-TAF: